sensor_id;sensor_type;location;lat;lon;timestamp;temperature;humidity
11239;DHT22;5677;48.488;13.436;2023-08-12T00:00:31;19.80;71.50
11239;DHT22;5677;48.488;13.436;2023-08-12T00:02:58;19.80;71.50
11239;DHT22;5677;48.488;13.436;2023-08-12T00:05:25;19.80;71.50
11239;DHT22;5677;48.488;13.436;2023-08-12T00:07:52;19.80;71.50
11239;DHT22;5677;48.488;13.436;2023-08-12T00:10:19;19.80;71.50
11239;DHT22;5677;48.488;13.436;2023-08-12T00:12:46;19.80;71.50
11239;DHT22;5677;48.488;13.436;2023-08-12T00:15:12;19.80;71.50
11239;DHT22;5677;48.488;13.436;2023-08-12T00:17:41;19.80;71.50
11239;DHT22;5677;48.488;13.436;2023-08-12T00:20:08;19.80;71.50
11239;DHT22;5677;48.488;13.436;2023-08-12T00:22:36;19.80;71.50
11239;DHT22;5677;48.488;13.436;2023-08-12T00:25:03;19.80;71.50
11239;DHT22;5677;48.488;13.436;2023-08-12T00:27:30;19.80;71.60
11239;DHT22;5677;48.488;13.436;2023-08-12T00:29:57;19.80;71.50
11239;DHT22;5677;48.488;13.436;2023-08-12T00:32:24;19.80;71.60
11239;DHT22;5677;48.488;13.436;2023-08-12T00:34:52;19.80;71.60
11239;DHT22;5677;48.488;13.436;2023-08-12T00:37:19;19.80;71.60
11239;DHT22;5677;48.488;13.436;2023-08-12T00:39:45;19.80;71.60
11239;DHT22;5677;48.488;13.436;2023-08-12T00:42:12;19.80;71.60
11239;DHT22;5677;48.488;13.436;2023-08-12T00:44:39;19.80;71.60
11239;DHT22;5677;48.488;13.436;2023-08-12T00:47:06;19.80;71.60
11239;DHT22;5677;48.488;13.436;2023-08-12T00:49:33;19.80;71.60
11239;DHT22;5677;48.488;13.436;2023-08-12T00:52:01;19.80;71.60
11239;DHT22;5677;48.488;13.436;2023-08-12T00:54:28;19.80;71.60
11239;DHT22;5677;48.488;13.436;2023-08-12T00:56:55;19.80;71.70
11239;DHT22;5677;48.488;13.436;2023-08-12T00:59:22;19.80;71.60
11239;DHT22;5677;48.488;13.436;2023-08-12T01:01:49;19.80;71.70
11239;DHT22;5677;48.488;13.436;2023-08-12T01:04:16;19.80;71.70
11239;DHT22;5677;48.488;13.436;2023-08-12T01:06:43;19.80;71.80
11239;DHT22;5677;48.488;13.436;2023-08-12T01:09:12;19.70;71.80
11239;DHT22;5677;48.488;13.436;2023-08-12T01:11:48;19.80;71.70
11239;DHT22;5677;48.488;13.436;2023-08-12T01:14:20;19.70;71.70
11239;DHT22;5677;48.488;13.436;2023-08-12T01:16:55;19.70;71.80
11239;DHT22;5677;48.488;13.436;2023-08-12T01:19:32;19.80;71.80
11239;DHT22;5677;48.488;13.436;2023-08-12T01:22:00;19.70;71.80
11239;DHT22;5677;48.488;13.436;2023-08-12T01:24:34;19.80;71.80
11239;DHT22;5677;48.488;13.436;2023-08-12T01:27:01;19.70;71.80
11239;DHT22;5677;48.488;13.436;2023-08-12T01:29:28;19.70;71.80
11239;DHT22;5677;48.488;13.436;2023-08-12T01:31:58;19.70;71.80
11239;DHT22;5677;48.488;13.436;2023-08-12T01:34:31;19.70;72.00
11239;DHT22;5677;48.488;13.436;2023-08-12T01:37:00;19.70;71.90
11239;DHT22;5677;48.488;13.436;2023-08-12T01:39:31;19.70;71.90
11239;DHT22;5677;48.488;13.436;2023-08-12T01:41:59;19.70;72.00
11239;DHT22;5677;48.488;13.436;2023-08-12T01:44:26;19.70;72.00
11239;DHT22;5677;48.488;13.436;2023-08-12T01:46:54;19.70;72.00
11239;DHT22;5677;48.488;13.436;2023-08-12T01:49:20;19.70;72.00
11239;DHT22;5677;48.488;13.436;2023-08-12T01:51:48;19.70;72.00
11239;DHT22;5677;48.488;13.436;2023-08-12T01:54:15;19.70;72.00
11239;DHT22;5677;48.488;13.436;2023-08-12T01:56:43;19.70;72.20
11239;DHT22;5677;48.488;13.436;2023-08-12T01:59:10;19.70;72.30
11239;DHT22;5677;48.488;13.436;2023-08-12T02:01:37;19.70;72.40
11239;DHT22;5677;48.488;13.436;2023-08-12T02:04:04;19.70;72.50
11239;DHT22;5677;48.488;13.436;2023-08-12T02:06:30;19.70;72.50
11239;DHT22;5677;48.488;13.436;2023-08-12T02:08:57;19.70;72.50
11239;DHT22;5677;48.488;13.436;2023-08-12T02:11:24;19.70;72.60
11239;DHT22;5677;48.488;13.436;2023-08-12T02:13:52;19.70;72.60
11239;DHT22;5677;48.488;13.436;2023-08-12T02:16:19;19.70;72.60
11239;DHT22;5677;48.488;13.436;2023-08-12T02:18:46;19.70;72.70
11239;DHT22;5677;48.488;13.436;2023-08-12T02:21:13;19.70;72.70
11239;DHT22;5677;48.488;13.436;2023-08-12T02:23:40;19.70;72.80
11239;DHT22;5677;48.488;13.436;2023-08-12T02:26:06;19.70;72.80
11239;DHT22;5677;48.488;13.436;2023-08-12T02:28:34;19.70;72.90
11239;DHT22;5677;48.488;13.436;2023-08-12T02:31:02;19.70;72.80
11239;DHT22;5677;48.488;13.436;2023-08-12T02:33:29;19.70;72.80
11239;DHT22;5677;48.488;13.436;2023-08-12T02:35:55;19.70;72.80
11239;DHT22;5677;48.488;13.436;2023-08-12T02:38:22;19.70;72.80
11239;DHT22;5677;48.488;13.436;2023-08-12T02:40:49;19.70;72.80
11239;DHT22;5677;48.488;13.436;2023-08-12T02:43:16;19.70;72.80
11239;DHT22;5677;48.488;13.436;2023-08-12T02:45:42;19.70;72.80
11239;DHT22;5677;48.488;13.436;2023-08-12T02:48:11;19.70;72.80
11239;DHT22;5677;48.488;13.436;2023-08-12T02:50:38;19.70;72.70
11239;DHT22;5677;48.488;13.436;2023-08-12T02:53:05;19.70;72.70
11239;DHT22;5677;48.488;13.436;2023-08-12T02:55:32;19.70;72.70
11239;DHT22;5677;48.488;13.436;2023-08-12T02:57:59;19.70;72.70
11239;DHT22;5677;48.488;13.436;2023-08-12T03:00:26;19.70;72.70
11239;DHT22;5677;48.488;13.436;2023-08-12T03:02:53;19.60;72.60
11239;DHT22;5677;48.488;13.436;2023-08-12T03:05:21;19.60;72.90
11239;DHT22;5677;48.488;13.436;2023-08-12T03:07:48;19.60;72.60
11239;DHT22;5677;48.488;13.436;2023-08-12T03:10:15;19.60;72.60
11239;DHT22;5677;48.488;13.436;2023-08-12T03:12:42;19.60;72.50
11239;DHT22;5677;48.488;13.436;2023-08-12T03:15:09;19.60;72.60
11239;DHT22;5677;48.488;13.436;2023-08-12T03:17:36;19.60;72.50
11239;DHT22;5677;48.488;13.436;2023-08-12T03:20:05;19.60;72.50
11239;DHT22;5677;48.488;13.436;2023-08-12T03:22:35;19.60;72.50
11239;DHT22;5677;48.488;13.436;2023-08-12T03:25:02;19.60;72.50
11239;DHT22;5677;48.488;13.436;2023-08-12T03:27:29;19.60;72.60
11239;DHT22;5677;48.488;13.436;2023-08-12T03:29:56;19.60;72.60
11239;DHT22;5677;48.488;13.436;2023-08-12T03:32:23;19.60;72.60
11239;DHT22;5677;48.488;13.436;2023-08-12T03:34:50;19.60;72.60
11239;DHT22;5677;48.488;13.436;2023-08-12T03:37:17;19.60;72.60
11239;DHT22;5677;48.488;13.436;2023-08-12T03:39:46;19.60;73.40
11239;DHT22;5677;48.488;13.436;2023-08-12T03:42:12;19.60;72.60
11239;DHT22;5677;48.488;13.436;2023-08-12T03:44:40;19.60;72.60
11239;DHT22;5677;48.488;13.436;2023-08-12T03:47:07;19.50;72.60
11239;DHT22;5677;48.488;13.436;2023-08-12T03:49:34;19.50;72.60
11239;DHT22;5677;48.488;13.436;2023-08-12T03:52:01;19.50;72.60
11239;DHT22;5677;48.488;13.436;2023-08-12T03:54:28;19.50;70.40
11239;DHT22;5677;48.488;13.436;2023-08-12T03:56:56;19.50;71.60
11239;DHT22;5677;48.488;13.436;2023-08-12T03:59:23;19.50;72.10
11239;DHT22;5677;48.488;13.436;2023-08-12T04:01:50;19.50;72.30
11239;DHT22;5677;48.488;13.436;2023-08-12T04:04:16;19.40;72.30
11239;DHT22;5677;48.488;13.436;2023-08-12T04:06:43;19.40;72.30
11239;DHT22;5677;48.488;13.436;2023-08-12T04:09:10;19.50;72.50
11239;DHT22;5677;48.488;13.436;2023-08-12T04:11:37;19.50;72.50
11239;DHT22;5677;48.488;13.436;2023-08-12T04:14:05;19.40;72.40
11239;DHT22;5677;48.488;13.436;2023-08-12T04:16:31;19.40;72.30
11239;DHT22;5677;48.488;13.436;2023-08-12T04:18:58;19.40;72.40
11239;DHT22;5677;48.488;13.436;2023-08-12T04:21:25;19.40;72.40
11239;DHT22;5677;48.488;13.436;2023-08-12T04:23:52;19.40;72.40
11239;DHT22;5677;48.488;13.436;2023-08-12T04:26:18;19.40;72.40
11239;DHT22;5677;48.488;13.436;2023-08-12T04:28:45;19.40;72.40
11239;DHT22;5677;48.488;13.436;2023-08-12T04:31:13;19.40;72.40
11239;DHT22;5677;48.488;13.436;2023-08-12T04:33:40;19.40;72.30
11239;DHT22;5677;48.488;13.436;2023-08-12T04:36:07;19.40;72.30
11239;DHT22;5677;48.488;13.436;2023-08-12T04:38:33;19.40;72.40
11239;DHT22;5677;48.488;13.436;2023-08-12T04:41:00;19.40;72.30
11239;DHT22;5677;48.488;13.436;2023-08-12T04:43:27;19.40;72.30
11239;DHT22;5677;48.488;13.436;2023-08-12T04:45:54;19.40;72.40
11239;DHT22;5677;48.488;13.436;2023-08-12T04:48:22;19.40;72.30
11239;DHT22;5677;48.488;13.436;2023-08-12T04:50:49;19.40;72.30
11239;DHT22;5677;48.488;13.436;2023-08-12T04:53:16;19.40;72.30
11239;DHT22;5677;48.488;13.436;2023-08-12T04:55:43;19.40;72.40
11239;DHT22;5677;48.488;13.436;2023-08-12T04:58:09;19.40;72.40
11239;DHT22;5677;48.488;13.436;2023-08-12T05:00:36;19.40;72.40
11239;DHT22;5677;48.488;13.436;2023-08-12T05:03:04;19.40;72.40
11239;DHT22;5677;48.488;13.436;2023-08-12T05:05:32;19.40;72.40
11239;DHT22;5677;48.488;13.436;2023-08-12T05:07:58;19.40;72.40
11239;DHT22;5677;48.488;13.436;2023-08-12T05:10:25;19.40;72.40
11239;DHT22;5677;48.488;13.436;2023-08-12T05:12:52;19.40;72.40
11239;DHT22;5677;48.488;13.436;2023-08-12T05:15:19;19.40;72.40
11239;DHT22;5677;48.488;13.436;2023-08-12T05:17:46;19.40;72.40
11239;DHT22;5677;48.488;13.436;2023-08-12T05:20:13;19.40;72.30
11239;DHT22;5677;48.488;13.436;2023-08-12T05:22:41;19.40;72.30
11239;DHT22;5677;48.488;13.436;2023-08-12T05:25:08;19.40;72.30
11239;DHT22;5677;48.488;13.436;2023-08-12T05:27:35;19.40;72.30
11239;DHT22;5677;48.488;13.436;2023-08-12T05:30:01;19.40;72.30
11239;DHT22;5677;48.488;13.436;2023-08-12T05:32:28;19.40;72.30
11239;DHT22;5677;48.488;13.436;2023-08-12T05:34:55;19.40;72.20
11239;DHT22;5677;48.488;13.436;2023-08-12T05:37:22;19.50;72.30
11239;DHT22;5677;48.488;13.436;2023-08-12T05:39:50;19.50;72.30
11239;DHT22;5677;48.488;13.436;2023-08-12T05:42:17;19.40;72.20
11239;DHT22;5677;48.488;13.436;2023-08-12T05:44:44;19.50;73.10
11239;DHT22;5677;48.488;13.436;2023-08-12T05:47:10;19.50;72.30
11239;DHT22;5677;48.488;13.436;2023-08-12T05:49:37;19.50;72.30
11239;DHT22;5677;48.488;13.436;2023-08-12T05:52:04;19.50;72.30
11239;DHT22;5677;48.488;13.436;2023-08-12T05:54:31;19.50;72.50
11239;DHT22;5677;48.488;13.436;2023-08-12T05:56:59;19.50;72.60
11239;DHT22;5677;48.488;13.436;2023-08-12T05:59:26;19.50;72.80
11239;DHT22;5677;48.488;13.436;2023-08-12T06:01:54;19.50;72.80
11239;DHT22;5677;48.488;13.436;2023-08-12T06:04:20;19.50;73.80
11239;DHT22;5677;48.488;13.436;2023-08-12T06:06:47;19.50;73.20
11239;DHT22;5677;48.488;13.436;2023-08-12T06:09:14;19.50;73.20
11239;DHT22;5677;48.488;13.436;2023-08-12T06:11:41;19.50;73.20
11239;DHT22;5677;48.488;13.436;2023-08-12T06:14:09;19.50;73.20
11239;DHT22;5677;48.488;13.436;2023-08-12T06:16:36;19.50;74.20
11239;DHT22;5677;48.488;13.436;2023-08-12T06:19:03;19.50;74.90
11239;DHT22;5677;48.488;13.436;2023-08-12T06:21:29;19.50;74.20
11239;DHT22;5677;48.488;13.436;2023-08-12T06:23:56;19.50;74.00
11239;DHT22;5677;48.488;13.436;2023-08-12T06:26:23;19.60;73.70
11239;DHT22;5677;48.488;13.436;2023-08-12T06:28:50;19.60;73.60
11239;DHT22;5677;48.488;13.436;2023-08-12T06:31:18;19.60;73.30
11239;DHT22;5677;48.488;13.436;2023-08-12T06:33:44;19.60;73.30
11239;DHT22;5677;48.488;13.436;2023-08-12T06:36:11;19.70;73.30
11239;DHT22;5677;48.488;13.436;2023-08-12T06:38:38;19.70;73.30
11239;DHT22;5677;48.488;13.436;2023-08-12T06:41:05;19.70;74.00
11239;DHT22;5677;48.488;13.436;2023-08-12T06:43:31;19.70;74.30
11239;DHT22;5677;48.488;13.436;2023-08-12T06:45:58;19.70;74.80
11239;DHT22;5677;48.488;13.436;2023-08-12T06:48:26;19.80;75.00
11239;DHT22;5677;48.488;13.436;2023-08-12T06:50:53;19.80;74.80
11239;DHT22;5677;48.488;13.436;2023-08-12T06:53:22;19.80;74.30
11239;DHT22;5677;48.488;13.436;2023-08-12T06:55:48;19.80;74.00
11239;DHT22;5677;48.488;13.436;2023-08-12T06:58:15;19.80;74.00
11239;DHT22;5677;48.488;13.436;2023-08-12T07:00:42;19.80;73.40
11239;DHT22;5677;48.488;13.436;2023-08-12T07:03:09;19.90;73.70
11239;DHT22;5677;48.488;13.436;2023-08-12T07:05:37;19.90;73.70
11239;DHT22;5677;48.488;13.436;2023-08-12T07:08:04;19.90;73.30
11239;DHT22;5677;48.488;13.436;2023-08-12T07:10:31;19.90;73.60
11239;DHT22;5677;48.488;13.436;2023-08-12T07:12:58;19.90;74.00
11239;DHT22;5677;48.488;13.436;2023-08-12T07:15:24;19.90;74.30
11239;DHT22;5677;48.488;13.436;2023-08-12T07:17:51;19.90;74.30
11239;DHT22;5677;48.488;13.436;2023-08-12T07:20:18;19.90;73.90
11239;DHT22;5677;48.488;13.436;2023-08-12T07:22:46;20.00;73.60
11239;DHT22;5677;48.488;13.436;2023-08-12T07:25:13;20.00;73.90
11239;DHT22;5677;48.488;13.436;2023-08-12T07:27:40;20.00;74.00
11239;DHT22;5677;48.488;13.436;2023-08-12T07:30:07;20.00;73.60
11239;DHT22;5677;48.488;13.436;2023-08-12T07:32:36;20.00;73.20
11239;DHT22;5677;48.488;13.436;2023-08-12T07:35:04;20.10;73.20
11239;DHT22;5677;48.488;13.436;2023-08-12T07:37:32;20.10;73.20
11239;DHT22;5677;48.488;13.436;2023-08-12T07:40:00;20.10;73.10
11239;DHT22;5677;48.488;13.436;2023-08-12T07:42:27;20.10;73.00
11239;DHT22;5677;48.488;13.436;2023-08-12T07:44:53;20.10;72.90
11239;DHT22;5677;48.488;13.436;2023-08-12T07:47:20;20.20;73.10
11239;DHT22;5677;48.488;13.436;2023-08-12T07:49:47;20.20;73.40
11239;DHT22;5677;48.488;13.436;2023-08-12T07:52:14;20.20;73.40
11239;DHT22;5677;48.488;13.436;2023-08-12T07:54:41;20.30;73.30
11239;DHT22;5677;48.488;13.436;2023-08-12T07:57:09;20.30;73.40
11239;DHT22;5677;48.488;13.436;2023-08-12T07:59:35;20.30;73.90
11239;DHT22;5677;48.488;13.436;2023-08-12T08:02:03;20.30;74.10
11239;DHT22;5677;48.488;13.436;2023-08-12T08:04:30;20.30;74.00
11239;DHT22;5677;48.488;13.436;2023-08-12T08:06:56;20.40;73.80
11239;DHT22;5677;48.488;13.436;2023-08-12T08:09:23;20.40;74.30
11239;DHT22;5677;48.488;13.436;2023-08-12T08:11:50;20.40;74.90
11239;DHT22;5677;48.488;13.436;2023-08-12T08:14:18;20.40;74.70
11239;DHT22;5677;48.488;13.436;2023-08-12T08:16:45;20.50;74.40
11239;DHT22;5677;48.488;13.436;2023-08-12T08:19:12;20.50;74.10
11239;DHT22;5677;48.488;13.436;2023-08-12T08:21:39;20.50;74.00
11239;DHT22;5677;48.488;13.436;2023-08-12T08:24:06;20.50;74.00
11239;DHT22;5677;48.488;13.436;2023-08-12T08:26:33;20.50;73.80
11239;DHT22;5677;48.488;13.436;2023-08-12T08:29:00;20.50;73.80
11239;DHT22;5677;48.488;13.436;2023-08-12T08:31:28;20.50;73.90
11239;DHT22;5677;48.488;13.436;2023-08-12T08:33:55;20.50;73.80
11239;DHT22;5677;48.488;13.436;2023-08-12T08:36:22;20.50;74.00
11239;DHT22;5677;48.488;13.436;2023-08-12T08:38:49;20.50;74.00
11239;DHT22;5677;48.488;13.436;2023-08-12T08:41:16;20.50;74.10
11239;DHT22;5677;48.488;13.436;2023-08-12T08:43:43;20.50;74.40
11239;DHT22;5677;48.488;13.436;2023-08-12T08:46:14;20.50;74.70
11239;DHT22;5677;48.488;13.436;2023-08-12T08:48:43;20.60;74.90
11239;DHT22;5677;48.488;13.436;2023-08-12T08:51:10;20.60;74.70
11239;DHT22;5677;48.488;13.436;2023-08-12T08:53:38;20.60;74.80
11239;DHT22;5677;48.488;13.436;2023-08-12T08:56:05;20.60;74.80
11239;DHT22;5677;48.488;13.436;2023-08-12T08:58:32;20.60;74.50
11239;DHT22;5677;48.488;13.436;2023-08-12T09:01:00;20.60;74.10
11239;DHT22;5677;48.488;13.436;2023-08-12T09:03:28;20.70;73.10
11239;DHT22;5677;48.488;13.436;2023-08-12T09:05:56;20.80;71.70
11239;DHT22;5677;48.488;13.436;2023-08-12T09:08:24;20.80;71.60
11239;DHT22;5677;48.488;13.436;2023-08-12T09:10:52;20.80;72.00
11239;DHT22;5677;48.488;13.436;2023-08-12T09:13:19;20.90;72.40
11239;DHT22;5677;48.488;13.436;2023-08-12T09:15:46;20.90;72.40
11239;DHT22;5677;48.488;13.436;2023-08-12T09:18:13;20.90;72.40
11239;DHT22;5677;48.488;13.436;2023-08-12T09:20:40;21.00;72.70
11239;DHT22;5677;48.488;13.436;2023-08-12T09:23:10;21.00;72.60
11239;DHT22;5677;48.488;13.436;2023-08-12T09:25:41;21.00;71.70
11239;DHT22;5677;48.488;13.436;2023-08-12T09:28:10;21.00;71.60
11239;DHT22;5677;48.488;13.436;2023-08-12T09:30:37;21.10;71.30
11239;DHT22;5677;48.488;13.436;2023-08-12T09:33:05;21.10;71.60
11239;DHT22;5677;48.488;13.436;2023-08-12T09:35:34;21.10;70.70
11239;DHT22;5677;48.488;13.436;2023-08-12T09:38:02;21.20;71.40
11239;DHT22;5677;48.488;13.436;2023-08-12T09:40:31;21.20;72.00
11239;DHT22;5677;48.488;13.436;2023-08-12T09:42:58;21.20;71.70
11239;DHT22;5677;48.488;13.436;2023-08-12T09:45:26;21.20;71.00
11239;DHT22;5677;48.488;13.436;2023-08-12T09:47:53;21.30;70.60
11239;DHT22;5677;48.488;13.436;2023-08-12T09:50:21;21.30;70.80
11239;DHT22;5677;48.488;13.436;2023-08-12T09:52:49;21.30;70.90
11239;DHT22;5677;48.488;13.436;2023-08-12T09:55:17;21.30;71.30
11239;DHT22;5677;48.488;13.436;2023-08-12T09:57:48;21.30;72.00
11239;DHT22;5677;48.488;13.436;2023-08-12T10:00:16;21.30;71.40
11239;DHT22;5677;48.488;13.436;2023-08-12T10:02:46;21.30;71.90
11239;DHT22;5677;48.488;13.436;2023-08-12T10:05:16;21.30;72.00
11239;DHT22;5677;48.488;13.436;2023-08-12T10:07:45;21.30;72.40
11239;DHT22;5677;48.488;13.436;2023-08-12T10:10:12;21.30;72.50
11239;DHT22;5677;48.488;13.436;2023-08-12T10:12:41;21.30;73.50
11239;DHT22;5677;48.488;13.436;2023-08-12T10:15:11;21.30;72.80
11239;DHT22;5677;48.488;13.436;2023-08-12T10:17:40;21.30;73.00
11239;DHT22;5677;48.488;13.436;2023-08-12T10:20:08;21.30;72.80
11239;DHT22;5677;48.488;13.436;2023-08-12T10:22:36;21.40;72.70
11239;DHT22;5677;48.488;13.436;2023-08-12T10:25:04;21.40;72.80
11239;DHT22;5677;48.488;13.436;2023-08-12T10:27:31;21.40;73.00
11239;DHT22;5677;48.488;13.436;2023-08-12T10:29:58;21.40;73.00
11239;DHT22;5677;48.488;13.436;2023-08-12T10:32:26;21.40;73.00
11239;DHT22;5677;48.488;13.436;2023-08-12T10:34:57;21.40;73.20
11239;DHT22;5677;48.488;13.436;2023-08-12T10:37:24;21.40;73.50
11239;DHT22;5677;48.488;13.436;2023-08-12T10:39:52;21.40;73.10
11239;DHT22;5677;48.488;13.436;2023-08-12T10:42:40;21.50;72.90
11239;DHT22;5677;48.488;13.436;2023-08-12T10:45:08;21.50;72.90
11239;DHT22;5677;48.488;13.436;2023-08-12T10:47:40;21.50;73.00
11239;DHT22;5677;48.488;13.436;2023-08-12T10:50:17;21.50;72.70
11239;DHT22;5677;48.488;13.436;2023-08-12T10:52:44;21.50;72.80
11239;DHT22;5677;48.488;13.436;2023-08-12T10:55:18;21.60;76.40
11239;DHT22;5677;48.488;13.436;2023-08-12T10:57:46;21.60;77.60
11239;DHT22;5677;48.488;13.436;2023-08-12T11:00:15;21.70;78.40
11239;DHT22;5677;48.488;13.436;2023-08-12T11:02:46;21.60;78.60
11239;DHT22;5677;48.488;13.436;2023-08-12T11:05:15;21.60;78.70
11239;DHT22;5677;48.488;13.436;2023-08-12T11:07:42;21.70;78.30
11239;DHT22;5677;48.488;13.436;2023-08-12T11:10:13;21.70;77.60
11239;DHT22;5677;48.488;13.436;2023-08-12T11:12:41;21.80;78.50
11239;DHT22;5677;48.488;13.436;2023-08-12T11:15:08;21.80;83.60
11239;DHT22;5677;48.488;13.436;2023-08-12T11:17:37;21.90;84.60
11239;DHT22;5677;48.488;13.436;2023-08-12T11:20:07;21.90;85.40
11239;DHT22;5677;48.488;13.436;2023-08-12T11:22:36;21.90;90.10
11239;DHT22;5677;48.488;13.436;2023-08-12T11:25:05;21.90;89.60
11239;DHT22;5677;48.488;13.436;2023-08-12T11:27:38;21.90;90.90
11239;DHT22;5677;48.488;13.436;2023-08-12T11:30:07;21.90;88.70
11239;DHT22;5677;48.488;13.436;2023-08-12T11:32:36;21.90;87.40
11239;DHT22;5677;48.488;13.436;2023-08-12T11:35:03;21.90;85.60
11239;DHT22;5677;48.488;13.436;2023-08-12T11:37:32;21.90;85.10
11239;DHT22;5677;48.488;13.436;2023-08-12T11:40:01;21.90;85.20
11239;DHT22;5677;48.488;13.436;2023-08-12T11:42:28;21.90;87.10
11239;DHT22;5677;48.488;13.436;2023-08-12T11:44:55;21.90;89.70
11239;DHT22;5677;48.488;13.436;2023-08-12T11:47:22;22.20;84.80
11239;DHT22;5677;48.488;13.436;2023-08-12T11:49:49;22.10;88.60
11239;DHT22;5677;48.488;13.436;2023-08-12T11:52:16;22.20;90.70
11239;DHT22;5677;48.488;13.436;2023-08-12T11:54:44;22.20;90.80
11239;DHT22;5677;48.488;13.436;2023-08-12T11:57:10;22.20;92.80
11239;DHT22;5677;48.488;13.436;2023-08-12T11:59:37;22.20;92.00
11239;DHT22;5677;48.488;13.436;2023-08-12T12:02:04;22.10;68.20
11239;DHT22;5677;48.488;13.436;2023-08-12T12:04:31;22.30;70.00
11239;DHT22;5677;48.488;13.436;2023-08-12T12:06:58;22.30;69.70
11239;DHT22;5677;48.488;13.436;2023-08-12T12:09:25;22.30;68.60
11239;DHT22;5677;48.488;13.436;2023-08-12T12:11:54;22.40;66.90
11239;DHT22;5677;48.488;13.436;2023-08-12T12:14:21;22.40;67.80
11239;DHT22;5677;48.488;13.436;2023-08-12T12:16:48;22.40;67.70
11239;DHT22;5677;48.488;13.436;2023-08-12T12:19:17;22.40;67.90
11239;DHT22;5677;48.488;13.436;2023-08-12T12:21:45;22.50;67.50
11239;DHT22;5677;48.488;13.436;2023-08-12T12:24:12;22.50;68.20
11239;DHT22;5677;48.488;13.436;2023-08-12T12:26:40;22.50;66.60
11239;DHT22;5677;48.488;13.436;2023-08-12T12:29:09;22.60;66.20
11239;DHT22;5677;48.488;13.436;2023-08-12T12:31:37;22.70;65.80
11239;DHT22;5677;48.488;13.436;2023-08-12T12:34:05;22.70;66.60
11239;DHT22;5677;48.488;13.436;2023-08-12T12:36:34;22.60;67.00
11239;DHT22;5677;48.488;13.436;2023-08-12T12:39:02;22.70;65.20
11239;DHT22;5677;48.488;13.436;2023-08-12T12:41:29;22.70;65.70
11239;DHT22;5677;48.488;13.436;2023-08-12T12:43:56;22.60;66.00
11239;DHT22;5677;48.488;13.436;2023-08-12T12:46:24;22.60;66.50
11239;DHT22;5677;48.488;13.436;2023-08-12T12:48:51;22.60;66.90
11239;DHT22;5677;48.488;13.436;2023-08-12T12:51:18;22.50;67.40
11239;DHT22;5677;48.488;13.436;2023-08-12T12:53:44;22.50;67.90
11239;DHT22;5677;48.488;13.436;2023-08-12T12:56:11;22.40;68.10
11239;DHT22;5677;48.488;13.436;2023-08-12T12:58:38;22.40;68.40
11239;DHT22;5677;48.488;13.436;2023-08-12T13:01:05;22.40;68.70
11239;DHT22;5677;48.488;13.436;2023-08-12T13:03:33;22.30;69.00
11239;DHT22;5677;48.488;13.436;2023-08-12T13:06:00;22.30;69.30
11239;DHT22;5677;48.488;13.436;2023-08-12T13:08:28;22.30;69.50
11239;DHT22;5677;48.488;13.436;2023-08-12T13:10:56;22.30;69.70
11239;DHT22;5677;48.488;13.436;2023-08-12T13:13:23;22.30;69.90
11239;DHT22;5677;48.488;13.436;2023-08-12T13:15:51;22.20;70.00
11239;DHT22;5677;48.488;13.436;2023-08-12T13:18:18;22.20;70.10
11239;DHT22;5677;48.488;13.436;2023-08-12T13:20:47;22.20;70.20
11239;DHT22;5677;48.488;13.436;2023-08-12T13:23:14;22.20;70.30
11239;DHT22;5677;48.488;13.436;2023-08-12T13:25:41;22.20;70.40
11239;DHT22;5677;48.488;13.436;2023-08-12T13:28:08;22.20;70.60
11239;DHT22;5677;48.488;13.436;2023-08-12T13:30:35;22.20;70.60
11239;DHT22;5677;48.488;13.436;2023-08-12T13:33:03;22.10;70.70
11239;DHT22;5677;48.488;13.436;2023-08-12T13:35:30;22.10;70.80
11239;DHT22;5677;48.488;13.436;2023-08-12T13:37:58;22.10;70.90
11239;DHT22;5677;48.488;13.436;2023-08-12T13:40:25;22.10;71.00
11239;DHT22;5677;48.488;13.436;2023-08-12T13:42:52;22.10;71.10
11239;DHT22;5677;48.488;13.436;2023-08-12T13:45:18;22.10;71.10
11239;DHT22;5677;48.488;13.436;2023-08-12T13:47:45;22.10;71.30
11239;DHT22;5677;48.488;13.436;2023-08-12T13:50:12;22.10;71.30
11239;DHT22;5677;48.488;13.436;2023-08-12T13:52:39;22.10;71.40
11239;DHT22;5677;48.488;13.436;2023-08-12T13:55:07;22.10;71.60
11239;DHT22;5677;48.488;13.436;2023-08-12T13:57:34;22.10;71.50
11239;DHT22;5677;48.488;13.436;2023-08-12T14:00:01;22.10;71.60
11239;DHT22;5677;48.488;13.436;2023-08-12T14:02:29;22.10;71.70
11239;DHT22;5677;48.488;13.436;2023-08-12T14:04:56;22.10;71.60
11239;DHT22;5677;48.488;13.436;2023-08-12T14:07:23;22.10;71.60
11239;DHT22;5677;48.488;13.436;2023-08-12T14:09:49;22.10;71.60
11239;DHT22;5677;48.488;13.436;2023-08-12T14:12:18;22.20;71.60
11239;DHT22;5677;48.488;13.436;2023-08-12T14:14:44;22.20;71.60
11239;DHT22;5677;48.488;13.436;2023-08-12T14:17:11;22.20;71.60
11239;DHT22;5677;48.488;13.436;2023-08-12T14:19:40;22.20;71.60
11239;DHT22;5677;48.488;13.436;2023-08-12T14:22:07;22.20;71.50
11239;DHT22;5677;48.488;13.436;2023-08-12T14:24:34;22.20;71.50
11239;DHT22;5677;48.488;13.436;2023-08-12T14:27:00;22.10;71.60
11239;DHT22;5677;48.488;13.436;2023-08-12T14:29:29;22.20;71.60
11239;DHT22;5677;48.488;13.436;2023-08-12T14:31:56;22.20;71.50
11239;DHT22;5677;48.488;13.436;2023-08-12T14:34:23;22.20;71.60
11239;DHT22;5677;48.488;13.436;2023-08-12T14:36:50;22.20;71.60
11239;DHT22;5677;48.488;13.436;2023-08-12T14:39:16;22.20;71.60
11239;DHT22;5677;48.488;13.436;2023-08-12T14:41:43;22.20;71.60
11239;DHT22;5677;48.488;13.436;2023-08-12T14:44:11;22.20;71.70
11239;DHT22;5677;48.488;13.436;2023-08-12T14:46:39;22.20;71.70
11239;DHT22;5677;48.488;13.436;2023-08-12T14:49:06;22.20;71.80
11239;DHT22;5677;48.488;13.436;2023-08-12T14:51:32;22.20;71.60
11239;DHT22;5677;48.488;13.436;2023-08-12T14:53:59;22.20;71.00
11239;DHT22;5677;48.488;13.436;2023-08-12T14:56:26;22.20;70.90
11239;DHT22;5677;48.488;13.436;2023-08-12T14:58:53;22.20;70.70
11239;DHT22;5677;48.488;13.436;2023-08-12T15:01:19;22.20;70.90
11239;DHT22;5677;48.488;13.436;2023-08-12T15:03:48;22.20;71.10
11239;DHT22;5677;48.488;13.436;2023-08-12T15:06:14;22.30;71.30
11239;DHT22;5677;48.488;13.436;2023-08-12T15:08:42;22.30;71.40
11239;DHT22;5677;48.488;13.436;2023-08-12T15:11:08;22.30;71.30
11239;DHT22;5677;48.488;13.436;2023-08-12T15:13:35;22.30;71.20
11239;DHT22;5677;48.488;13.436;2023-08-12T15:16:02;22.30;71.40
11239;DHT22;5677;48.488;13.436;2023-08-12T15:18:29;22.30;71.50
11239;DHT22;5677;48.488;13.436;2023-08-12T15:20:57;22.30;71.40
11239;DHT22;5677;48.488;13.436;2023-08-12T15:23:24;22.40;71.40
11239;DHT22;5677;48.488;13.436;2023-08-12T15:25:50;22.40;71.40
11239;DHT22;5677;48.488;13.436;2023-08-12T15:28:17;22.40;71.40
11239;DHT22;5677;48.488;13.436;2023-08-12T15:30:47;22.40;71.40